sensor_id;sensor_type;location;lat;lon;timestamp;temperature;humidity
37846;DHT22;23686;49.828;8.702;2022-12-11T00:01:45;0.20;99.90
37846;DHT22;23686;49.828;8.702;2022-12-11T00:04:10;0.20;99.90
37846;DHT22;23686;49.828;8.702;2022-12-11T00:06:36;0.30;99.90
37846;DHT22;23686;49.828;8.702;2022-12-11T00:09:01;0.20;99.90
37846;DHT22;23686;49.828;8.702;2022-12-11T00:11:29;0.30;99.90
37846;DHT22;23686;49.828;8.702;2022-12-11T00:13:54;0.30;99.90
37846;DHT22;23686;49.828;8.702;2022-12-11T00:16:20;0.30;99.90
37846;DHT22;23686;49.828;8.702;2022-12-11T00:18:45;0.30;99.90
37846;DHT22;23686;49.828;8.702;2022-12-11T00:21:12;0.30;99.90
37846;DHT22;23686;49.828;8.702;2022-12-11T00:23:37;0.30;99.90
37846;DHT22;23686;49.828;8.702;2022-12-11T00:26:04;0.30;99.90
37846;DHT22;23686;49.828;8.702;2022-12-11T00:28:29;0.30;99.90
37846;DHT22;23686;49.828;8.702;2022-12-11T00:30:55;0.20;99.90
37846;DHT22;23686;49.828;8.702;2022-12-11T00:33:20;0.20;99.90
37846;DHT22;23686;49.828;8.702;2022-12-11T00:35:46;0.20;99.90
37846;DHT22;23686;49.828;8.702;2022-12-11T00:38:16;0.30;99.90
37846;DHT22;23686;49.828;8.702;2022-12-11T00:40:41;0.40;99.90
37846;DHT22;23686;49.828;8.702;2022-12-11T00:43:07;0.40;99.90
37846;DHT22;23686;49.828;8.702;2022-12-11T00:45:36;0.40;99.90
37846;DHT22;23686;49.828;8.702;2022-12-11T00:48:01;0.50;99.90
37846;DHT22;23686;49.828;8.702;2022-12-11T00:50:27;0.40;99.90
37846;DHT22;23686;49.828;8.702;2022-12-11T00:52:52;0.40;99.90
37846;DHT22;23686;49.828;8.702;2022-12-11T00:55:18;0.40;99.90
37846;DHT22;23686;49.828;8.702;2022-12-11T00:57:43;0.40;99.90
37846;DHT22;23686;49.828;8.702;2022-12-11T01:00:09;0.40;99.90
37846;DHT22;23686;49.828;8.702;2022-12-11T01:02:35;0.40;99.90
37846;DHT22;23686;49.828;8.702;2022-12-11T01:05:00;0.50;99.90
37846;DHT22;23686;49.828;8.702;2022-12-11T01:07:26;0.50;99.90
37846;DHT22;23686;49.828;8.702;2022-12-11T01:09:51;0.50;99.90
37846;DHT22;23686;49.828;8.702;2022-12-11T01:12:35;0.50;99.90
37846;DHT22;23686;49.828;8.702;2022-12-11T01:15:00;0.50;99.90
37846;DHT22;23686;49.828;8.702;2022-12-11T01:17:26;0.50;99.90
37846;DHT22;23686;49.828;8.702;2022-12-11T01:19:54;0.50;99.90
37846;DHT22;23686;49.828;8.702;2022-12-11T01:22:20;0.50;99.90
37846;DHT22;23686;49.828;8.702;2022-12-11T01:24:45;0.50;99.90
37846;DHT22;23686;49.828;8.702;2022-12-11T01:27:11;0.50;99.90
37846;DHT22;23686;49.828;8.702;2022-12-11T01:29:36;0.50;99.90
37846;DHT22;23686;49.828;8.702;2022-12-11T01:32:02;0.50;99.90
37846;DHT22;23686;49.828;8.702;2022-12-11T01:34:28;0.60;99.90
37846;DHT22;23686;49.828;8.702;2022-12-11T01:36:53;0.60;99.90
37846;DHT22;23686;49.828;8.702;2022-12-11T01:39:19;0.70;99.90
37846;DHT22;23686;49.828;8.702;2022-12-11T01:41:44;0.70;99.90
37846;DHT22;23686;49.828;8.702;2022-12-11T01:46:38;0.70;99.90
37846;DHT22;23686;49.828;8.702;2022-12-11T01:49:05;0.70;99.90
37846;DHT22;23686;49.828;8.702;2022-12-11T01:51:32;0.70;99.90
37846;DHT22;23686;49.828;8.702;2022-12-11T01:54:01;0.80;99.90
37846;DHT22;23686;49.828;8.702;2022-12-11T01:56:28;0.80;99.90
37846;DHT22;23686;49.828;8.702;2022-12-11T01:58:56;0.80;99.90
37846;DHT22;23686;49.828;8.702;2022-12-11T02:01:30;0.80;99.90
37846;DHT22;23686;49.828;8.702;2022-12-11T02:03:56;0.90;99.90
37846;DHT22;23686;49.828;8.702;2022-12-11T02:08:54;1.00;99.90
37846;DHT22;23686;49.828;8.702;2022-12-11T02:11:20;0.90;99.90
37846;DHT22;23686;49.828;8.702;2022-12-11T02:14:08;0.90;99.90
37846;DHT22;23686;49.828;8.702;2022-12-11T02:19:07;0.90;99.90
37846;DHT22;23686;49.828;8.702;2022-12-11T02:21:40;1.00;99.90
37846;DHT22;23686;49.828;8.702;2022-12-11T02:29:29;1.00;99.90
37846;DHT22;23686;49.828;8.702;2022-12-11T02:31:59;1.10;99.90
37846;DHT22;23686;49.828;8.702;2022-12-11T02:34:30;1.10;99.90
37846;DHT22;23686;49.828;8.702;2022-12-11T02:36:57;1.10;99.90
37846;DHT22;23686;49.828;8.702;2022-12-11T02:39:24;1.10;99.90
37846;DHT22;23686;49.828;8.702;2022-12-11T02:41:51;1.10;99.90
37846;DHT22;23686;49.828;8.702;2022-12-11T02:44:21;1.10;99.90
37846;DHT22;23686;49.828;8.702;2022-12-11T02:46:48;1.10;99.90
37846;DHT22;23686;49.828;8.702;2022-12-11T02:49:14;1.20;99.90
37846;DHT22;23686;49.828;8.702;2022-12-11T02:51:41;1.20;99.90
37846;DHT22;23686;49.828;8.702;2022-12-11T02:54:15;1.20;99.90
37846;DHT22;23686;49.828;8.702;2022-12-11T02:56:43;1.20;99.90
37846;DHT22;23686;49.828;8.702;2022-12-11T02:59:12;1.20;99.90
37846;DHT22;23686;49.828;8.702;2022-12-11T03:01:40;1.20;99.90
37846;DHT22;23686;49.828;8.702;2022-12-11T03:04:05;1.20;99.90
37846;DHT22;23686;49.828;8.702;2022-12-11T03:06:31;1.20;99.90
37846;DHT22;23686;49.828;8.702;2022-12-11T03:08:58;1.20;99.90
37846;DHT22;23686;49.828;8.702;2022-12-11T03:11:24;1.20;99.90
37846;DHT22;23686;49.828;8.702;2022-12-11T03:13:49;1.20;99.90
37846;DHT22;23686;49.828;8.702;2022-12-11T03:21:12;1.30;99.90
37846;DHT22;23686;49.828;8.702;2022-12-11T03:23:43;1.30;99.90
37846;DHT22;23686;49.828;8.702;2022-12-11T03:26:11;1.30;99.90
37846;DHT22;23686;49.828;8.702;2022-12-11T03:28:42;1.30;99.90
37846;DHT22;23686;49.828;8.702;2022-12-11T03:31:10;1.30;99.90
37846;DHT22;23686;49.828;8.702;2022-12-11T03:33:37;1.30;99.90
37846;DHT22;23686;49.828;8.702;2022-12-11T03:36:11;1.40;99.90
37846;DHT22;23686;49.828;8.702;2022-12-11T03:38:43;1.30;99.90
37846;DHT22;23686;49.828;8.702;2022-12-11T03:41:10;1.30;99.90
37846;DHT22;23686;49.828;8.702;2022-12-11T03:43:37;1.30;99.90
37846;DHT22;23686;49.828;8.702;2022-12-11T03:46:04;1.30;99.90
37846;DHT22;23686;49.828;8.702;2022-12-11T03:48:31;1.30;99.90
37846;DHT22;23686;49.828;8.702;2022-12-11T03:50:57;1.30;99.90
37846;DHT22;23686;49.828;8.702;2022-12-11T03:53:24;1.30;99.90
37846;DHT22;23686;49.828;8.702;2022-12-11T03:55:50;1.30;99.90
37846;DHT22;23686;49.828;8.702;2022-12-11T03:58:16;1.30;99.90
37846;DHT22;23686;49.828;8.702;2022-12-11T04:00:41;1.30;99.90
37846;DHT22;23686;49.828;8.702;2022-12-11T04:03:06;1.30;99.90
37846;DHT22;23686;49.828;8.702;2022-12-11T04:05:42;1.30;99.90
37846;DHT22;23686;49.828;8.702;2022-12-11T04:08:09;1.30;99.90
37846;DHT22;23686;49.828;8.702;2022-12-11T04:10:34;1.30;99.90
37846;DHT22;23686;49.828;8.702;2022-12-11T04:12:59;1.30;99.90
37846;DHT22;23686;49.828;8.702;2022-12-11T04:15:25;1.30;99.90
37846;DHT22;23686;49.828;8.702;2022-12-11T04:17:50;1.30;99.90
37846;DHT22;23686;49.828;8.702;2022-12-11T04:20:35;1.30;99.90
37846;DHT22;23686;49.828;8.702;2022-12-11T04:23:18;1.30;99.90
37846;DHT22;23686;49.828;8.702;2022-12-11T04:26:04;1.30;99.90
37846;DHT22;23686;49.828;8.702;2022-12-11T04:28:30;1.30;99.90
37846;DHT22;23686;49.828;8.702;2022-12-11T04:30:55;1.30;99.90
37846;DHT22;23686;49.828;8.702;2022-12-11T04:33:20;1.30;99.90
37846;DHT22;23686;49.828;8.702;2022-12-11T04:35:46;1.30;99.90
37846;DHT22;23686;49.828;8.702;2022-12-11T04:38:11;1.30;99.90
37846;DHT22;23686;49.828;8.702;2022-12-11T04:40:37;1.30;99.90
37846;DHT22;23686;49.828;8.702;2022-12-11T04:43:02;1.30;99.90
37846;DHT22;23686;49.828;8.702;2022-12-11T04:45:28;1.30;99.90
37846;DHT22;23686;49.828;8.702;2022-12-11T04:47:53;1.40;99.90
37846;DHT22;23686;49.828;8.702;2022-12-11T04:50:18;1.30;99.90
37846;DHT22;23686;49.828;8.702;2022-12-11T04:52:44;1.40;99.90
37846;DHT22;23686;49.828;8.702;2022-12-11T04:55:10;1.30;99.90
37846;DHT22;23686;49.828;8.702;2022-12-11T04:57:35;1.40;99.90
37846;DHT22;23686;49.828;8.702;2022-12-11T05:00:01;1.40;99.90
37846;DHT22;23686;49.828;8.702;2022-12-11T05:02:28;1.40;99.90
37846;DHT22;23686;49.828;8.702;2022-12-11T05:04:54;1.40;99.90
37846;DHT22;23686;49.828;8.702;2022-12-11T05:07:19;1.40;99.90
37846;DHT22;23686;49.828;8.702;2022-12-11T05:09:45;1.50;99.90
37846;DHT22;23686;49.828;8.702;2022-12-11T05:12:10;1.50;99.90
37846;DHT22;23686;49.828;8.702;2022-12-11T05:14:36;1.40;99.90
37846;DHT22;23686;49.828;8.702;2022-12-11T05:17:01;1.40;99.90
37846;DHT22;23686;49.828;8.702;2022-12-11T05:19:27;1.40;99.90
37846;DHT22;23686;49.828;8.702;2022-12-11T05:21:52;1.50;99.90
37846;DHT22;23686;49.828;8.702;2022-12-11T05:24:17;1.50;99.90
37846;DHT22;23686;49.828;8.702;2022-12-11T05:26:43;1.50;99.90
37846;DHT22;23686;49.828;8.702;2022-12-11T05:29:08;1.50;99.90
37846;DHT22;23686;49.828;8.702;2022-12-11T05:31:34;1.40;99.90
37846;DHT22;23686;49.828;8.702;2022-12-11T05:33:59;1.40;99.90
37846;DHT22;23686;49.828;8.702;2022-12-11T05:36:26;1.40;99.90
37846;DHT22;23686;49.828;8.702;2022-12-11T05:38:51;1.40;99.90
37846;DHT22;23686;49.828;8.702;2022-12-11T05:41:18;1.50;99.90
37846;DHT22;23686;49.828;8.702;2022-12-11T05:43:44;1.50;99.90
37846;DHT22;23686;49.828;8.702;2022-12-11T05:46:11;1.50;99.90
37846;DHT22;23686;49.828;8.702;2022-12-11T05:48:37;1.50;99.90
37846;DHT22;23686;49.828;8.702;2022-12-11T05:51:04;1.50;99.90
37846;DHT22;23686;49.828;8.702;2022-12-11T05:53:29;1.50;99.90
37846;DHT22;23686;49.828;8.702;2022-12-11T05:56:05;1.50;99.90
37846;DHT22;23686;49.828;8.702;2022-12-11T05:58:31;1.60;99.90
37846;DHT22;23686;49.828;8.702;2022-12-11T06:00:57;1.60;99.90
37846;DHT22;23686;49.828;8.702;2022-12-11T06:03:22;1.60;99.90
37846;DHT22;23686;49.828;8.702;2022-12-11T06:05:48;1.60;99.90
37846;DHT22;23686;49.828;8.702;2022-12-11T06:08:13;1.60;99.90
37846;DHT22;23686;49.828;8.702;2022-12-11T06:10:45;1.60;99.90
37846;DHT22;23686;49.828;8.702;2022-12-11T06:13:11;1.60;99.90
37846;DHT22;23686;49.828;8.702;2022-12-11T06:15:37;1.50;99.90
37846;DHT22;23686;49.828;8.702;2022-12-11T06:18:02;1.50;99.90
37846;DHT22;23686;49.828;8.702;2022-12-11T06:20:29;1.60;99.90
37846;DHT22;23686;49.828;8.702;2022-12-11T06:22:55;1.60;99.90
37846;DHT22;23686;49.828;8.702;2022-12-11T06:25:20;1.50;99.90
37846;DHT22;23686;49.828;8.702;2022-12-11T06:27:46;1.50;99.90
37846;DHT22;23686;49.828;8.702;2022-12-11T06:30:11;1.50;99.90
37846;DHT22;23686;49.828;8.702;2022-12-11T06:32:37;1.50;99.90
37846;DHT22;23686;49.828;8.702;2022-12-11T06:35:02;1.50;99.90
37846;DHT22;23686;49.828;8.702;2022-12-11T06:37:28;1.50;99.90
37846;DHT22;23686;49.828;8.702;2022-12-11T06:39:53;1.50;99.90
37846;DHT22;23686;49.828;8.702;2022-12-11T06:42:19;1.60;99.90
37846;DHT22;23686;49.828;8.702;2022-12-11T06:44:44;1.60;99.90
37846;DHT22;23686;49.828;8.702;2022-12-11T06:47:09;1.60;99.90
37846;DHT22;23686;49.828;8.702;2022-12-11T06:49:35;1.60;99.90
37846;DHT22;23686;49.828;8.702;2022-12-11T06:52:00;1.50;99.90
37846;DHT22;23686;49.828;8.702;2022-12-11T06:54:26;1.50;99.90
37846;DHT22;23686;49.828;8.702;2022-12-11T06:56:52;1.50;99.90
37846;DHT22;23686;49.828;8.702;2022-12-11T06:59:17;1.60;99.90
37846;DHT22;23686;49.828;8.702;2022-12-11T07:01:43;1.60;99.90
37846;DHT22;23686;49.828;8.702;2022-12-11T07:04:09;1.60;99.90
37846;DHT22;23686;49.828;8.702;2022-12-11T07:06:34;1.60;99.90
37846;DHT22;23686;49.828;8.702;2022-12-11T07:09:02;1.60;99.90
37846;DHT22;23686;49.828;8.702;2022-12-11T07:11:27;1.50;99.90
37846;DHT22;23686;49.828;8.702;2022-12-11T07:13:53;1.60;99.90
37846;DHT22;23686;49.828;8.702;2022-12-11T07:16:18;1.60;99.90
37846;DHT22;23686;49.828;8.702;2022-12-11T07:18:48;1.60;99.90
37846;DHT22;23686;49.828;8.702;2022-12-11T07:21:14;1.50;99.90
37846;DHT22;23686;49.828;8.702;2022-12-11T07:23:39;1.50;99.90
37846;DHT22;23686;49.828;8.702;2022-12-11T07:26:12;1.50;99.90
37846;DHT22;23686;49.828;8.702;2022-12-11T07:28:38;1.50;99.90
37846;DHT22;23686;49.828;8.702;2022-12-11T07:31:10;1.40;99.90
37846;DHT22;23686;49.828;8.702;2022-12-11T07:33:36;1.40;99.90
37846;DHT22;23686;49.828;8.702;2022-12-11T07:36:05;1.40;99.90
37846;DHT22;23686;49.828;8.702;2022-12-11T07:38:31;1.50;99.90
37846;DHT22;23686;49.828;8.702;2022-12-11T07:41:00;1.50;99.90
37846;DHT22;23686;49.828;8.702;2022-12-11T07:43:25;1.40;99.90
37846;DHT22;23686;49.828;8.702;2022-12-11T07:45:51;1.40;99.90
37846;DHT22;23686;49.828;8.702;2022-12-11T07:48:16;1.40;99.90
37846;DHT22;23686;49.828;8.702;2022-12-11T07:50:42;1.40;99.90
37846;DHT22;23686;49.828;8.702;2022-12-11T07:53:07;1.40;99.90
37846;DHT22;23686;49.828;8.702;2022-12-11T07:55:33;1.40;99.90
37846;DHT22;23686;49.828;8.702;2022-12-11T07:57:58;1.40;99.90
37846;DHT22;23686;49.828;8.702;2022-12-11T08:00:24;1.50;99.90
37846;DHT22;23686;49.828;8.702;2022-12-11T08:02:49;1.50;99.90
37846;DHT22;23686;49.828;8.702;2022-12-11T08:05:14;1.50;99.90
37846;DHT22;23686;49.828;8.702;2022-12-11T08:07:40;1.50;99.90
37846;DHT22;23686;49.828;8.702;2022-12-11T08:10:05;1.50;99.90
37846;DHT22;23686;49.828;8.702;2022-12-11T08:12:31;1.50;99.90
37846;DHT22;23686;49.828;8.702;2022-12-11T08:14:57;1.50;99.90
37846;DHT22;23686;49.828;8.702;2022-12-11T08:17:22;1.60;99.90
37846;DHT22;23686;49.828;8.702;2022-12-11T08:19:47;1.60;99.90
37846;DHT22;23686;49.828;8.702;2022-12-11T08:22:13;1.60;99.90
37846;DHT22;23686;49.828;8.702;2022-12-11T08:24:38;1.60;99.90
37846;DHT22;23686;49.828;8.702;2022-12-11T08:27:04;1.60;99.90
37846;DHT22;23686;49.828;8.702;2022-12-11T08:29:30;1.60;99.90
37846;DHT22;23686;49.828;8.702;2022-12-11T08:31:55;1.60;99.90
37846;DHT22;23686;49.828;8.702;2022-12-11T08:34:21;1.60;99.90
37846;DHT22;23686;49.828;8.702;2022-12-11T08:36:46;1.60;99.90
37846;DHT22;23686;49.828;8.702;2022-12-11T08:39:12;1.60;99.90
37846;DHT22;23686;49.828;8.702;2022-12-11T08:41:37;1.60;99.90
37846;DHT22;23686;49.828;8.702;2022-12-11T08:44:03;1.60;99.90
37846;DHT22;23686;49.828;8.702;2022-12-11T08:46:29;1.70;99.90
37846;DHT22;23686;49.828;8.702;2022-12-11T08:48:55;1.70;99.90
37846;DHT22;23686;49.828;8.702;2022-12-11T08:51:23;1.70;99.90
37846;DHT22;23686;49.828;8.702;2022-12-11T08:53:49;1.80;99.90
37846;DHT22;23686;49.828;8.702;2022-12-11T08:56:16;1.80;99.90
37846;DHT22;23686;49.828;8.702;2022-12-11T08:58:42;1.80;99.90
37846;DHT22;23686;49.828;8.702;2022-12-11T09:01:12;1.80;99.90
37846;DHT22;23686;49.828;8.702;2022-12-11T09:03:38;1.80;99.90
37846;DHT22;23686;49.828;8.702;2022-12-11T09:06:08;1.80;99.90
37846;DHT22;23686;49.828;8.702;2022-12-11T09:08:34;1.80;99.90
37846;DHT22;23686;49.828;8.702;2022-12-11T09:11:03;1.80;99.90
37846;DHT22;23686;49.828;8.702;2022-12-11T09:13:29;1.90;99.90
37846;DHT22;23686;49.828;8.702;2022-12-11T09:15:54;1.90;99.90
37846;DHT22;23686;49.828;8.702;2022-12-11T09:18:20;1.90;99.90
37846;DHT22;23686;49.828;8.702;2022-12-11T09:20:45;2.00;99.90
37846;DHT22;23686;49.828;8.702;2022-12-11T09:23:11;2.00;99.90
37846;DHT22;23686;49.828;8.702;2022-12-11T09:25:38;2.00;99.90
37846;DHT22;23686;49.828;8.702;2022-12-11T09:28:04;2.00;99.90
37846;DHT22;23686;49.828;8.702;2022-12-11T09:30:29;2.00;99.90
37846;DHT22;23686;49.828;8.702;2022-12-11T09:32:55;2.00;99.90
37846;DHT22;23686;49.828;8.702;2022-12-11T09:35:20;2.00;99.90
37846;DHT22;23686;49.828;8.702;2022-12-11T09:37:46;2.00;99.90
37846;DHT22;23686;49.828;8.702;2022-12-11T09:40:11;2.00;99.90
37846;DHT22;23686;49.828;8.702;2022-12-11T09:45:03;1.90;99.90
37846;DHT22;23686;49.828;8.702;2022-12-11T09:47:35;2.00;99.90
37846;DHT22;23686;49.828;8.702;2022-12-11T09:50:14;2.00;99.90
37846;DHT22;23686;49.828;8.702;2022-12-11T09:55:29;2.00;99.90
37846;DHT22;23686;49.828;8.702;2022-12-11T09:58:15;2.10;99.90
37846;DHT22;23686;49.828;8.702;2022-12-11T10:00:45;2.10;99.90
37846;DHT22;23686;49.828;8.702;2022-12-11T10:08:44;2.30;99.90
37846;DHT22;23686;49.828;8.702;2022-12-11T10:13:47;2.30;99.90
37846;DHT22;23686;49.828;8.702;2022-12-11T10:18:48;2.40;99.90
37846;DHT22;23686;49.828;8.702;2022-12-11T10:21:15;2.40;99.90
37846;DHT22;23686;49.828;8.702;2022-12-11T10:23:45;2.50;99.90
37846;DHT22;23686;49.828;8.702;2022-12-11T10:26:23;2.50;99.90
37846;DHT22;23686;49.828;8.702;2022-12-11T10:28:49;2.50;99.90
37846;DHT22;23686;49.828;8.702;2022-12-11T10:31:16;2.50;99.90
37846;DHT22;23686;49.828;8.702;2022-12-11T10:33:47;2.50;99.90
37846;DHT22;23686;49.828;8.702;2022-12-11T10:36:16;2.60;99.90
37846;DHT22;23686;49.828;8.702;2022-12-11T10:38:43;2.60;99.90
37846;DHT22;23686;49.828;8.702;2022-12-11T10:41:19;2.60;99.90
37846;DHT22;23686;49.828;8.702;2022-12-11T10:43:46;2.60;99.90
37846;DHT22;23686;49.828;8.702;2022-12-11T10:46:14;2.60;99.90
37846;DHT22;23686;49.828;8.702;2022-12-11T10:49:01;2.60;99.90
37846;DHT22;23686;49.828;8.702;2022-12-11T10:53:56;2.70;99.90
37846;DHT22;23686;49.828;8.702;2022-12-11T10:56:29;2.70;99.90
37846;DHT22;23686;49.828;8.702;2022-12-11T10:58:55;2.70;99.90
37846;DHT22;23686;49.828;8.702;2022-12-11T11:01:22;2.70;99.90
37846;DHT22;23686;49.828;8.702;2022-12-11T11:06:18;2.60;99.90
37846;DHT22;23686;49.828;8.702;2022-12-11T11:08:46;2.60;99.90
37846;DHT22;23686;49.828;8.702;2022-12-11T11:11:15;2.60;99.90
37846;DHT22;23686;49.828;8.702;2022-12-11T11:13:44;2.60;99.90
37846;DHT22;23686;49.828;8.702;2022-12-11T11:16:14;2.70;99.90
37846;DHT22;23686;49.828;8.702;2022-12-11T11:18:40;2.80;99.90
37846;DHT22;23686;49.828;8.702;2022-12-11T11:21:06;2.80;99.90
37846;DHT22;23686;49.828;8.702;2022-12-11T11:23:40;2.70;99.90
37846;DHT22;23686;49.828;8.702;2022-12-11T11:26:06;2.70;99.90
37846;DHT22;23686;49.828;8.702;2022-12-11T11:28:36;2.70;99.90
37846;DHT22;23686;49.828;8.702;2022-12-11T11:31:07;2.70;99.90
37846;DHT22;23686;49.828;8.702;2022-12-11T11:33:34;2.70;99.90
37846;DHT22;23686;49.828;8.702;2022-12-11T11:36:01;2.70;99.90
37846;DHT22;23686;49.828;8.702;2022-12-11T11:41:26;2.80;99.90
37846;DHT22;23686;49.828;8.702;2022-12-11T11:43:53;2.80;99.90
37846;DHT22;23686;49.828;8.702;2022-12-11T11:48:59;2.80;99.90
37846;DHT22;23686;49.828;8.702;2022-12-11T11:53:54;2.80;99.90
37846;DHT22;23686;49.828;8.702;2022-12-11T11:59:06;2.80;99.90
37846;DHT22;23686;49.828;8.702;2022-12-11T12:01:35;2.80;99.90
37846;DHT22;23686;49.828;8.702;2022-12-11T12:04:02;2.80;99.90
37846;DHT22;23686;49.828;8.702;2022-12-11T12:06:30;2.80;99.90
37846;DHT22;23686;49.828;8.702;2022-12-11T12:12:07;2.90;99.90
37846;DHT22;23686;49.828;8.702;2022-12-11T12:14:42;2.90;99.90
37846;DHT22;23686;49.828;8.702;2022-12-11T12:22:33;2.90;99.90
37846;DHT22;23686;49.828;8.702;2022-12-11T12:25:14;2.90;99.90
37846;DHT22;23686;49.828;8.702;2022-12-11T12:27:54;2.90;99.90
37846;DHT22;23686;49.828;8.702;2022-12-11T12:30:22;2.90;99.90
37846;DHT22;23686;49.828;8.702;2022-12-11T12:32:57;2.90;99.90
37846;DHT22;23686;49.828;8.702;2022-12-11T12:40:31;2.90;99.90
37846;DHT22;23686;49.828;8.702;2022-12-11T12:45:40;2.80;99.90
37846;DHT22;23686;49.828;8.702;2022-12-11T12:48:08;2.80;99.90
37846;DHT22;23686;49.828;8.702;2022-12-11T12:50:41;2.80;99.90
37846;DHT22;23686;49.828;8.702;2022-12-11T12:53:08;2.90;99.90
37846;DHT22;23686;49.828;8.702;2022-12-11T12:55:38;2.90;99.90
37846;DHT22;23686;49.828;8.702;2022-12-11T12:58:04;2.90;99.90
37846;DHT22;23686;49.828;8.702;2022-12-11T13:00:34;2.90;99.90
37846;DHT22;23686;49.828;8.702;2022-12-11T13:03:02;2.90;99.90
37846;DHT22;23686;49.828;8.702;2022-12-11T13:05:39;2.90;99.90
37846;DHT22;23686;49.828;8.702;2022-12-11T13:08:05;2.90;99.90
37846;DHT22;23686;49.828;8.702;2022-12-11T13:12:56;2.80;99.90
37846;DHT22;23686;49.828;8.702;2022-12-11T13:17:47;2.80;99.90
37846;DHT22;23686;49.828;8.702;2022-12-11T13:20:17;2.80;99.90
37846;DHT22;23686;49.828;8.702;2022-12-11T13:23:25;2.70;99.90
37846;DHT22;23686;49.828;8.702;2022-12-11T13:25:32;2.70;99.90
37846;DHT22;23686;49.828;8.702;2022-12-11T13:28:19;2.70;99.90
37846;DHT22;23686;49.828;8.702;2022-12-11T13:33:30;2.70;99.90
37846;DHT22;23686;49.828;8.702;2022-12-11T13:36:03;2.70;99.90
37846;DHT22;23686;49.828;8.702;2022-12-11T13:38:30;2.60;99.90
37846;DHT22;23686;49.828;8.702;2022-12-11T13:40:56;2.60;99.90
37846;DHT22;23686;49.828;8.702;2022-12-11T13:43:27;2.60;99.90
37846;DHT22;23686;49.828;8.702;2022-12-11T13:46:00;2.60;99.90
37846;DHT22;23686;49.828;8.702;2022-12-11T13:48:34;2.60;99.90
37846;DHT22;23686;49.828;8.702;2022-12-11T13:51:05;2.60;99.90
37846;DHT22;23686;49.828;8.702;2022-12-11T13:53:30;2.60;99.90
37846;DHT22;23686;49.828;8.702;2022-12-11T13:55:57;2.60;99.90
37846;DHT22;23686;49.828;8.702;2022-12-11T13:58:23;2.60;99.90
37846;DHT22;23686;49.828;8.702;2022-12-11T14:00:52;2.60;99.90
37846;DHT22;23686;49.828;8.702;2022-12-11T14:03:18;2.60;99.90
37846;DHT22;23686;49.828;8.702;2022-12-11T14:05:43;2.60;99.90
37846;DHT22;23686;49.828;8.702;2022-12-11T14:08:09;2.50;99.90
37846;DHT22;23686;49.828;8.702;2022-12-11T14:10:35;2.50;99.90
37846;DHT22;23686;49.828;8.702;2022-12-11T14:13:02;2.50;99.90
37846;DHT22;23686;49.828;8.702;2022-12-11T14:15:29;2.50;99.90
37846;DHT22;23686;49.828;8.702;2022-12-11T14:17:55;2.50;99.90
37846;DHT22;23686;49.828;8.702;2022-12-11T14:20:25;2.50;99.90
37846;DHT22;23686;49.828;8.702;2022-12-11T14:23:03;2.50;99.90
37846;DHT22;23686;49.828;8.702;2022-12-11T14:25:28;2.50;99.90
37846;DHT22;23686;49.828;8.702;2022-12-11T14:27:54;2.50;99.90
37846;DHT22;23686;49.828;8.702;2022-12-11T14:30:27;2.50;99.90
37846;DHT22;23686;49.828;8.702;2022-12-11T14:32:56;2.50;99.90
37846;DHT22;23686;49.828;8.702;2022-12-11T14:35:28;2.40;99.90
37846;DHT22;23686;49.828;8.702;2022-12-11T14:37:55;2.40;99.90
37846;DHT22;23686;49.828;8.702;2022-12-11T14:40:23;2.40;99.90
37846;DHT22;23686;49.828;8.702;2022-12-11T14:42:54;2.40;99.90
37846;DHT22;23686;49.828;8.702;2022-12-11T14:45:23;2.40;99.90
37846;DHT22;23686;49.828;8.702;2022-12-11T14:47:50;2.40;99.90
37846;DHT22;23686;49.828;8.702;2022-12-11T14:50:21;2.40;99.90
37846;DHT22;23686;49.828;8.702;2022-12-11T14:52:54;2.50;99.90
37846;DHT22;23686;49.828;8.702;2022-12-11T14:55:24;2.40;99.90
37846;DHT22;23686;49.828;8.702;2022-12-11T14:57:52;2.40;99.90
37846;DHT22;23686;49.828;8.702;2022-12-11T15:00:40;2.40;99.90
37846;DHT22;23686;49.828;8.702;2022-12-11T15:04:00;2.40;99.90
37846;DHT22;23686;49.828;8.702;2022-12-11T15:05:52;2.40;99.90
37846;DHT22;23686;49.828;8.702;2022-12-11T15:08:20;2.40;99.90
37846;DHT22;23686;49.828;8.702;2022-12-11T15:11:02;2.40;99.90
37846;DHT22;23686;49.828;8.702;2022-12-11T15:13:28;2.40;99.90
37846;DHT22;23686;49.828;8.702;2022-12-11T15:15:54;2.40;99.90
37846;DHT22;23686;49.828;8.702;2022-12-11T15:18:21;2.40;99.90
37846;DHT22;23686;49.828;8.702;2022-12-11T15:20:54;2.40;99.90
37846;DHT22;23686;49.828;8.702;2022-12-11T15:23:20;2.40;99.90
37846;DHT22;23686;49.828;8.702;2022-12-11T15:25:50;2.30;99.90
37846;DHT22;23686;49.828;8.702;2022-12-11T15:28:35;2.40;99.90
37846;DHT22;23686;49.828;8.702;2022-12-11T15:31:03;2.40;99.90
37846;DHT22;23686;49.828;8.702;2022-12-11T15:33:29;2.50;99.90
37846;DHT22;23686;49.828;8.702;2022-12-11T15:36:05;2.50;99.90
37846;DHT22;23686;49.828;8.702;2022-12-11T15:38:32;2.60;99.90
37846;DHT22;23686;49.828;8.702;2022-12-11T15:40:57;2.60;99.90
37846;DHT22;23686;49.828;8.702;2022-12-11T15:43:23;2.60;99.90
37846;DHT22;23686;49.828;8.702;2022-12-11T15:45:49;2.60;99.90
37846;DHT22;23686;49.828;8.702;2022-12-11T15:48:14;2.60;99.90
37846;DHT22;23686;49.828;8.702;2022-12-11T15:50:39;2.50;99.90
37846;DHT22;23686;49.828;8.702;2022-12-11T15:53:05;2.50;99.90
37846;DHT22;23686;49.828;8.702;2022-12-11T15:55:31;2.50;99.90
37846;DHT22;23686;49.828;8.702;2022-12-11T15:58:00;2.50;99.90
37846;DHT22;23686;49.828;8.702;2022-12-11T16:00:27;2.40;99.90
37846;DHT22;23686;49.828;8.702;2022-12-11T16:02:53;2.40;99.90
37846;DHT22;23686;49.828;8.702;2022-12-11T16:05:19;2.40;99.90
37846;DHT22;23686;49.828;8.702;2022-12-11T16:07:44;2.40;99.90
37846;DHT22;23686;49.828;8.702;2022-12-11T16:10:14;2.30;99.90
37846;DHT22;23686;49.828;8.702;2022-12-11T16:12:40;2.30;99.90
37846;DHT22;23686;49.828;8.702;2022-12-11T16:15:07;2.30;99.90
37846;DHT22;23686;49.828;8.702;2022-12-11T16:17:32;2.30;99.90
37846;DHT22;23686;49.828;8.702;2022-12-11T16:19:58;2.30;99.90
37846;DHT22;23686;49.828;8.702;2022-12-11T16:22:23;2.30;99.90
37846;DHT22;23686;49.828;8.702;2022-12-11T16:24:52;2.20;99.90
37846;DHT22;23686;49.828;8.702;2022-12-11T16:27:17;2.30;99.90
37846;DHT22;23686;49.828;8.702;2022-12-11T16:29:42;2.30;99.90
37846;DHT22;23686;49.828;8.702;2022-12-11T16:32:08;2.30;99.90
37846;DHT22;23686;49.828;8.702;2022-12-11T16:34:34;2.20;99.90
37846;DHT22;23686;49.828;8.702;2022-12-11T16:37:00;2.20;99.90
37846;DHT22;23686;49.828;8.702;2022-12-11T16:39:25;2.30;99.90
37846;DHT22;23686;49.828;8.702;2022-12-11T16:41:51;2.30;99.90
37846;DHT22;23686;49.828;8.702;2022-12-11T16:44:18;2.30;99.90
37846;DHT22;23686;49.828;8.702;2022-12-11T16:46:44;2.30;99.90
37846;DHT22;23686;49.828;8.702;2022-12-11T16:49:10;2.30;99.90
37846;DHT22;23686;49.828;8.702;2022-12-11T16:51:35;2.30;99.90
37846;DHT22;23686;49.828;8.702;2022-12-11T16:54:01;2.20;99.90
37846;DHT22;23686;49.828;8.702;2022-12-11T16:56:26;2.10;99.90
37846;DHT22;23686;49.828;8.702;2022-12-11T16:58:51;2.20;99.90
37846;DHT22;23686;49.828;8.702;2022-12-11T17:01:17;2.20;99.90